Time;durP1;ratioP1;P1;durP2;ratioP2;P2;SDS_P1;SDS_P2;PMS_P1;PMS_P2;Temp;Humidity;BMP_temperature;BMP_pressure;BME280_temperature;BME280_humidity;BME280_pressure;Samples;Min_cycle;Max_cycle;Signal;HPM_P1;HPM_P2
2022/08/07 00:00:14;;;;;;;1.17;0.80;;;;;;;-148.56;100.00;61375.16;4925292;28;20041;-28
2022/08/07 00:02:39;;;;;;;5.00;1.20;;;;;;;-148.56;100.00;61375.16;4926604;28;20141;-29
2022/08/07 00:05:05;;;;;;;2.13;0.82;;;;;;;-148.56;100.00;61375.16;4929686;28;20039;-30
2022/08/07 00:07:30;;;;;;;1.95;0.82;;;;;;;-148.56;100.00;61375.16;4924482;28;20062;-28
2022/08/07 00:09:56;;;;;;;3.25;1.10;;;;;;;-148.56;100.00;61375.16;4926243;28;20041;-28
2022/08/07 00:12:21;;;;;;;3.63;1.15;;;;;;;-148.56;100.00;61375.16;4925103;28;20047;-29
2022/08/07 00:14:46;;;;;;;3.28;1.13;;;;;;;-148.56;100.00;61375.16;4926356;28;20115;-30
2022/08/07 00:17:12;;;;;;;4.07;0.93;;;;;;;-148.56;100.00;61375.16;4925411;28;20728;-31
2022/08/07 00:19:37;;;;;;;2.83;1.20;;;;;;;-148.56;100.00;61375.16;4927218;28;20023;-35
2022/08/07 00:22:03;;;;;;;2.22;0.85;;;;;;;-148.56;100.00;61375.16;4926529;28;20033;-33
2022/08/07 00:24:28;;;;;;;1.58;1.00;;;;;;;-148.56;100.00;61375.16;4924708;28;20568;-32
2022/08/07 00:26:53;;;;;;;2.88;1.00;;;;;;;-148.56;100.00;61375.16;4928473;28;20054;-32
2022/08/07 00:29:24;;;;;;;4.18;0.90;;;;;;;-148.56;100.00;61375.16;4919513;28;20038;-31
2022/08/07 00:31:50;;;;;;;0.83;0.80;;;;;;;-148.56;100.00;61375.16;4925770;28;20026;-29
2022/08/07 00:34:15;;;;;;;2.88;1.10;;;;;;;-148.56;100.00;61375.16;4925919;28;22420;-26
2022/08/07 00:36:42;;;;;;;1.35;1.00;;;;;;;-148.56;100.00;61375.16;4920688;28;20184;-29
2022/08/07 00:39:07;;;;;;;2.63;1.15;;;;;;;-148.56;100.00;61375.16;4920014;28;20102;-28
2022/08/07 00:41:33;;;;;;;1.63;1.00;;;;;;;-148.56;100.00;61375.16;4926968;28;20768;-28
2022/08/07 00:43:58;;;;;;;1.85;1.10;;;;;;;-148.56;100.00;61375.16;4926710;28;20042;-29
2022/08/07 00:46:25;;;;;;;1.55;0.85;;;;;;;-148.56;100.00;61375.16;4923134;28;20045;-29
2022/08/07 00:48:50;;;;;;;1.58;0.90;;;;;;;-148.56;100.00;61375.16;4924594;28;20026;-27
2022/08/07 00:51:15;;;;;;;3.53;1.10;;;;;;;-148.56;100.00;61375.16;4927197;28;22605;-29
2022/08/07 00:53:41;;;;;;;4.50;1.17;;;;;;;-148.56;100.00;61375.16;4922201;28;20031;-28
2022/08/07 00:56:07;;;;;;;1.40;1.00;;;;;;;-148.56;100.00;61375.16;4923170;28;20035;-29
2022/08/07 00:58:32;;;;;;;1.60;1.00;;;;;;;-148.56;100.00;61375.16;4922368;28;21069;-31
2022/08/07 01:00:57;;;;;;;1.83;0.80;;;;;;;-148.56;100.00;61375.16;4924192;28;20046;-31
2022/08/07 01:03:23;;;;;;;5.25;1.10;;;;;;;-148.56;100.00;61375.16;4926625;28;20704;-29
2022/08/07 01:05:48;;;;;;;1.67;0.90;;;;;;;-148.56;100.00;61375.16;4928853;28;20037;-26
2022/08/07 01:08:14;;;;;;;2.40;1.10;;;;;;;-148.56;100.00;61375.16;4925458;28;20031;-31
2022/08/07 01:10:41;;;;;;;2.25;1.00;;;;;;;-148.56;100.00;61375.16;4920171;28;20038;-28
2022/08/07 01:13:07;;;;;;;2.53;1.05;;;;;;;-148.56;100.00;61375.16;4923749;28;20640;-28
2022/08/07 01:15:32;;;;;;;1.70;0.85;;;;;;;-148.56;100.00;61375.16;4922152;28;20130;-27
2022/08/07 01:17:58;;;;;;;2.38;1.20;;;;;;;-148.56;100.00;61375.16;4915181;28;20034;-29
2022/08/07 01:20:29;;;;;;;4.32;0.93;;;;;;;-148.56;100.00;61375.16;4907187;28;20960;-27
2022/08/07 01:22:54;;;;;;;3.45;1.00;;;;;;;-148.56;100.00;61375.16;4904269;28;21207;-29
2022/08/07 01:25:20;;;;;;;3.08;0.90;;;;;;;-148.56;100.00;61375.16;4901989;28;20119;-28
2022/08/07 01:27:45;;;;;;;2.40;0.95;;;;;;;-148.56;100.00;61375.16;4902576;28;20372;-27
2022/08/07 01:30:11;;;;;;;2.45;1.00;;;;;;;-148.56;100.00;61375.16;4902697;28;20055;-26
2022/08/07 01:32:36;;;;;;;4.88;0.90;;;;;;;-148.56;100.00;61375.16;4887248;28;20522;-29
2022/08/07 01:35:02;;;;;;;1.85;0.70;;;;;;;-148.56;100.00;61375.16;4900038;28;20137;-29
2022/08/07 01:37:28;;;;;;;2.17;1.08;;;;;;;-148.56;100.00;61375.16;4905658;28;20034;-27
2022/08/07 01:39:53;;;;;;;2.30;1.00;;;;;;;-148.56;100.00;61375.16;4903177;28;20376;-30
2022/08/07 01:42:19;;;;;;;3.65;1.02;;;;;;;-148.56;100.00;61375.16;4898558;28;21799;-28
2022/08/07 01:44:44;;;;;;;2.75;0.95;;;;;;;-148.56;100.00;61375.16;4926251;28;20029;-31
2022/08/07 01:47:09;;;;;;;1.77;1.05;;;;;;;-148.56;100.00;61375.16;4921268;28;20483;-32
2022/08/07 01:49:35;;;;;;;1.40;0.95;;;;;;;-148.56;100.00;61375.16;4909288;28;20039;-30
2022/08/07 01:52:01;;;;;;;3.58;1.08;;;;;;;-148.56;100.00;61375.16;4906751;28;20141;-26
2022/08/07 01:54:26;;;;;;;1.38;0.80;;;;;;;-148.56;100.00;61375.16;4903065;28;20034;-34
2022/08/07 01:56:53;;;;;;;1.88;1.10;;;;;;;-148.56;100.00;61375.16;4906009;28;20073;-27
2022/08/07 01:59:42;;;;;;;3.22;1.05;;;;;;;-148.56;100.00;61375.16;4927138;28;20034;-30
2022/08/07 02:02:10;;;;;;;3.97;0.90;;;;;;;-148.56;100.00;61375.16;4901729;28;20123;-26
2022/08/07 02:04:42;;;;;;;2.33;0.90;;;;;;;-148.56;100.00;61375.16;4918408;28;20066;-28
2022/08/07 02:07:07;;;;;;;2.28;1.08;;;;;;;-148.56;100.00;61375.16;4920109;28;21027;-25
2022/08/07 02:09:33;;;;;;;2.72;1.10;;;;;;;-148.56;100.00;61375.16;4922171;28;20035;-30
2022/08/07 02:11:58;;;;;;;2.45;0.80;;;;;;;-148.56;100.00;61375.16;4926745;28;20031;-30
2022/08/07 02:14:25;;;;;;;5.22;0.80;;;;;;;-148.56;100.00;61375.16;4905216;28;20499;-28
2022/08/07 02:16:50;;;;;;;1.75;0.95;;;;;;;-148.56;100.00;61375.16;4923150;28;20329;-28
2022/08/07 02:19:16;;;;;;;1.33;0.70;;;;;;;-148.56;100.00;61375.16;4928077;28;20999;-27
2022/08/07 02:21:41;;;;;;;1.65;1.00;;;;;;;-148.56;100.00;61375.16;4922727;28;20031;-29
2022/08/07 02:24:06;;;;;;;3.28;1.00;;;;;;;-148.56;100.00;61375.16;4905455;28;20031;-28
2022/08/07 02:26:35;;;;;;;4.40;0.90;;;;;;;-148.56;100.00;61375.16;4905902;28;20109;-30
2022/08/07 02:29:02;;;;;;;2.33;1.23;;;;;;;-148.56;100.00;61375.16;4905515;28;20153;-31
2022/08/07 02:31:27;;;;;;;1.38;0.90;;;;;;;-148.56;100.00;61375.16;4904092;28;20132;-28
2022/08/07 02:33:52;;;;;;;2.28;0.90;;;;;;;-148.56;100.00;61375.16;4906221;28;20740;-29
2022/08/07 02:36:18;;;;;;;0.77;0.70;;;;;;;-148.56;100.00;61375.16;4884420;28;20054;-31
2022/08/07 02:38:43;;;;;;;5.00;1.10;;;;;;;-148.56;100.00;61375.16;4904317;28;20145;-28
2022/08/07 02:41:09;;;;;;;2.55;0.90;;;;;;;-148.56;100.00;61375.16;4889473;28;20053;-29
2022/08/07 02:43:35;;;;;;;3.92;0.82;;;;;;;-148.56;100.00;61375.16;4903936;28;20366;-25
2022/08/07 02:46:00;;;;;;;1.95;1.10;;;;;;;-148.56;100.00;61375.16;4902272;28;20161;-28
2022/08/07 02:48:26;;;;;;;2.22;1.08;;;;;;;-148.56;100.00;61375.16;4906271;28;20045;-31
2022/08/07 02:50:53;;;;;;;3.00;0.85;;;;;;;-148.56;100.00;61375.16;4906469;28;20758;-30
2022/08/07 02:53:21;;;;;;;1.42;0.70;;;;;;;-148.56;100.00;61375.16;4895707;28;20027;-29
2022/08/07 02:55:48;;;;;;;3.53;1.17;;;;;;;-148.56;100.00;61375.16;4903949;28;20027;-30
2022/08/07 02:58:16;;;;;;;1.92;1.10;;;;;;;-148.56;100.00;61375.16;4902821;28;20131;-29
2022/08/07 03:00:41;;;;;;;2.53;0.90;;;;;;;-148.56;100.00;61375.16;4902621;28;20122;-27
2022/08/07 03:03:07;;;;;;;4.00;1.20;;;;;;;-148.56;100.00;61375.16;4897965;28;20505;-25
2022/08/07 03:05:35;;;;;;;1.73;1.02;;;;;;;-148.56;100.00;61375.16;4898507;28;21411;-28
2022/08/07 03:08:00;;;;;;;1.45;0.80;;;;;;;-148.56;100.00;61375.16;4918900;28;20098;-26
2022/08/07 03:10:26;;;;;;;2.90;0.90;;;;;;;-148.56;100.00;61375.16;4889877;28;20031;-27
2022/08/07 03:12:51;;;;;;;1.58;0.70;;;;;;;-148.56;100.00;61375.16;4872655;28;20241;-30
2022/08/07 03:15:17;;;;;;;5.22;1.10;;;;;;;-148.56;100.00;61375.16;4900064;28;20178;-30
2022/08/07 03:17:43;;;;;;;1.20;0.70;;;;;;;-148.56;100.00;61375.16;4885785;28;20035;-31
2022/08/07 03:20:08;;;;;;;2.53;0.82;;;;;;;-148.56;100.00;61375.16;4900002;28;20189;-27
2022/08/07 03:22:34;;;;;;;2.08;0.85;;;;;;;-148.56;100.00;61375.16;4910195;28;20031;-26
2022/08/07 03:24:59;;;;;;;1.88;0.88;;;;;;;-148.56;100.00;61375.16;4914672;28;20672;-30
2022/08/07 03:27:25;;;;;;;1.02;0.73;;;;;;;-148.56;100.00;61375.16;4907121;28;20466;-25
2022/08/07 03:29:51;;;;;;;1.20;0.90;;;;;;;-148.56;100.00;61375.16;4903295;28;20034;-31
2022/08/07 03:32:21;;;;;;;2.42;0.90;;;;;;;-148.56;100.00;61375.16;4894107;28;20252;-24
2022/08/07 03:34:48;;;;;;;1.48;1.10;;;;;;;-148.56;100.00;61375.16;4904306;28;20039;-29
2022/08/07 03:37:14;;;;;;;1.50;0.75;;;;;;;-148.56;100.00;61375.16;4890049;28;20855;-27
2022/08/07 03:39:39;;;;;;;2.15;0.93;;;;;;;-148.56;100.00;61375.16;4909757;28;20123;-26
2022/08/07 03:42:05;;;;;;;1.30;0.85;;;;;;;-148.56;100.00;61375.16;4907273;28;20038;-28
2022/08/07 03:44:32;;;;;;;2.28;0.90;;;;;;;-148.56;100.00;61375.16;4904904;28;20157;-25
2022/08/07 03:46:57;;;;;;;2.97;1.00;;;;;;;-148.56;100.00;61375.16;4898160;28;20130;-27
2022/08/07 03:49:22;;;;;;;1.83;0.93;;;;;;;-148.56;100.00;61375.16;4909547;28;20027;-25
2022/08/07 03:51:48;;;;;;;1.20;0.82;;;;;;;-148.56;100.00;61375.16;4901999;28;20046;-32
2022/08/07 03:54:14;;;;;;;2.08;0.75;;;;;;;-148.56;100.00;61375.16;4905924;28;20084;-29
2022/08/07 03:56:39;;;;;;;1.48;0.80;;;;;;;-148.56;100.00;61375.16;4903888;28;20322;-26
2022/08/07 03:59:05;;;;;;;1.52;0.90;;;;;;;-148.56;100.00;61375.16;4903647;28;20035;-26
2022/08/07 04:01:30;;;;;;;0.82;0.70;;;;;;;-148.56;100.00;61375.16;4905988;28;20035;-27
2022/08/07 04:03:56;;;;;;;2.80;0.90;;;;;;;-148.56;100.00;61375.16;4887457;28;20690;-29
2022/08/07 04:06:21;;;;;;;3.50;0.93;;;;;;;-148.56;100.00;61375.16;4906923;28;21779;-25
2022/08/07 04:08:47;;;;;;;2.63;0.90;;;;;;;-148.56;100.00;61375.16;4904753;28;20039;-28
2022/08/07 04:11:12;;;;;;;1.45;0.90;;;;;;;-148.56;100.00;61375.16;4907985;28;20065;-27
2022/08/07 04:13:37;;;;;;;1.80;1.00;;;;;;;-148.56;100.00;61375.16;4914805;28;20711;-28
2022/08/07 04:16:03;;;;;;;1.80;0.75;;;;;;;-148.56;100.00;61375.16;4904613;28;20080;-27
2022/08/07 04:18:29;;;;;;;3.03;1.02;;;;;;;-148.56;100.00;61375.16;4889864;28;20233;-32
2022/08/07 04:20:54;;;;;;;1.20;0.93;;;;;;;-148.56;100.00;61375.16;4895363;28;20031;-26
2022/08/07 04:23:19;;;;;;;3.42;0.93;;;;;;;-148.56;100.00;61375.16;4917499;28;21611;-28
2022/08/07 04:25:45;;;;;;;2.30;1.02;;;;;;;-148.56;100.00;61375.16;4900131;28;20121;-28
2022/08/07 04:28:11;;;;;;;1.02;0.80;;;;;;;-148.56;100.00;61375.16;4903682;28;20043;-29
2022/08/07 04:30:36;;;;;;;1.25;0.60;;;;;;;-148.56;100.00;61375.16;4904264;28;20046;-31
2022/08/07 04:33:11;;;;;;;1.40;0.70;;;;;;;-148.56;100.00;61375.16;4905200;28;21081;-25
2022/08/07 04:35:36;;;;;;;1.90;1.00;;;;;;;-148.56;100.00;61375.16;4907511;28;20126;-32
2022/08/07 04:38:08;;;;;;;2.70;0.93;;;;;;;-148.56;100.00;61375.16;4901469;28;20027;-30
2022/08/07 04:40:34;;;;;;;1.63;0.90;;;;;;;-148.56;100.00;61375.16;4906713;28;20035;-28
2022/08/07 04:42:59;;;;;;;0.95;0.68;;;;;;;-148.56;100.00;61375.16;4906674;28;20061;-29
2022/08/07 04:45:28;;;;;;;1.60;0.80;;;;;;;-148.56;100.00;61375.16;4910805;28;20035;-30
2022/08/07 04:47:59;;;;;;;1.92;0.90;;;;;;;-148.56;100.00;61375.16;4909289;28;21386;-29
2022/08/07 04:50:34;;;;;;;3.10;1.23;;;;;;;-148.56;100.00;61375.16;4890585;28;20110;-28
2022/08/07 04:53:09;;;;;;;2.65;0.90;;;;;;;-148.56;100.00;61375.16;4926233;28;20093;-24
2022/08/07 04:55:56;;;;;;;2.92;0.82;;;;;;;-148.56;100.00;61375.16;4899677;28;20113;-30
2022/08/07 04:58:36;;;;;;;3.95;0.93;;;;;;;-148.56;100.00;61375.16;4898879;28;20058;-28
2022/08/07 05:01:06;;;;;;;1.33;0.50;;;;;;;-148.56;100.00;61375.16;4905762;28;20043;-27
2022/08/07 05:03:52;;;;;;;1.02;0.70;;;;;;;-148.56;100.00;61375.16;4906745;28;20046;-26
2022/08/07 05:06:30;;;;;;;3.20;0.90;;;;;;;-148.56;100.00;61375.16;4908216;28;20043;-25
2022/08/07 05:09:11;;;;;;;2.08;1.13;;;;;;;-148.56;100.00;61375.16;4907317;28;20030;-26
2022/08/07 05:11:42;;;;;;;1.50;0.73;;;;;;;-148.56;100.00;61375.16;4919635;28;20035;-29
2022/08/07 05:14:18;;;;;;;2.17;0.77;;;;;;;-148.56;100.00;61375.16;4916552;28;20045;-28
2022/08/07 05:16:46;;;;;;;2.35;0.82;;;;;;;-148.56;100.00;61375.16;4887468;28;20027;-29
2022/08/07 05:19:17;;;;;;;1.08;0.60;;;;;;;-148.56;100.00;61375.16;4908572;28;21766;-30
2022/08/07 05:21:43;;;;;;;1.73;0.70;;;;;;;-148.56;100.00;61375.16;4913194;28;20047;-33
2022/08/07 05:24:10;;;;;;;1.33;0.90;;;;;;;-148.56;100.00;61375.16;4912497;28;20347;-28
2022/08/07 05:26:35;;;;;;;2.38;0.80;;;;;;;-148.56;100.00;61375.16;4907649;28;20878;-26
2022/08/07 05:29:02;;;;;;;0.60;0.60;;;;;;;-148.56;100.00;61375.16;4899726;28;20046;-32
2022/08/07 05:31:37;;;;;;;1.30;0.68;;;;;;;-148.56;100.00;61375.16;4899889;28;20590;-30
2022/08/07 05:34:02;;;;;;;2.05;0.75;;;;;;;-148.56;100.00;61375.16;4902520;28;21001;-32
2022/08/07 05:36:28;;;;;;;3.25;0.90;;;;;;;-148.56;100.00;61375.16;4905847;28;20050;-33
2022/08/07 05:38:53;;;;;;;1.73;0.80;;;;;;;-148.56;100.00;61375.16;4904782;28;20034;-26
2022/08/07 05:41:19;;;;;;;1.52;0.82;;;;;;;-148.56;100.00;61375.16;4923178;28;20027;-30
2022/08/07 05:43:47;;;;;;;5.53;0.80;;;;;;;-148.56;100.00;61375.16;4910140;28;20033;-25
2022/08/07 05:46:15;;;;;;;1.08;0.68;;;;;;;-148.56;100.00;61375.16;4911422;28;20038;-26
2022/08/07 05:48:40;;;;;;;2.85;0.60;;;;;;;-148.56;100.00;61375.16;4909349;28;20327;-29
2022/08/07 05:51:06;;;;;;;3.45;0.75;;;;;;;-148.56;100.00;61375.16;4905009;28;21704;-27
2022/08/07 05:53:32;;;;;;;1.75;0.80;;;;;;;-148.56;100.00;61375.16;4907033;28;20144;-28
2022/08/07 05:55:57;;;;;;;2.70;0.77;;;;;;;-148.56;100.00;61375.16;4905986;28;20118;-25
2022/08/07 05:58:23;;;;;;;2.95;0.80;;;;;;;-148.56;100.00;61375.16;4890540;28;20697;-25
2022/08/07 06:00:48;;;;;;;1.85;0.82;;;;;;;-148.56;100.00;61375.16;4918717;28;20027;-28
2022/08/07 06:03:14;;;;;;;2.08;0.93;;;;;;;-148.56;100.00;61375.16;4904787;28;20360;-30
2022/08/07 06:05:39;;;;;;;1.35;0.75;;;;;;;-148.56;100.00;61375.16;4887836;28;21008;-27
2022/08/07 06:08:05;;;;;;;1.83;0.73;;;;;;;-148.56;100.00;61375.16;4901466;28;20038;-30
2022/08/07 06:10:31;;;;;;;1.00;0.63;;;;;;;-148.56;100.00;61375.16;4903797;28;20610;-26
2022/08/07 06:12:56;;;;;;;1.17;0.77;;;;;;;-148.56;100.00;61375.16;4916296;28;20034;-28
2022/08/07 06:15:22;;;;;;;1.60;0.82;;;;;;;-148.56;100.00;61375.16;4898761;28;20042;-31
2022/08/07 06:17:47;;;;;;;1.45;0.80;;;;;;;-148.56;100.00;61375.16;4902589;28;20457;-27
2022/08/07 06:20:13;;;;;;;3.42;0.90;;;;;;;-148.56;100.00;61375.16;4920337;28;20815;-24
2022/08/07 06:22:41;;;;;;;1.63;0.80;;;;;;;-148.56;100.00;61375.16;4924306;28;20026;-30
2022/08/07 06:25:07;;;;;;;2.15;1.00;;;;;;;-148.56;100.00;61375.16;4916929;28;20038;-26
2022/08/07 06:27:32;;;;;;;2.63;1.02;;;;;;;-148.56;100.00;61375.16;4906635;28;20042;-27
2022/08/07 06:29:58;;;;;;;2.13;1.10;;;;;;;-148.56;100.00;61375.16;4908703;28;20306;-24
2022/08/07 06:32:24;;;;;;;3.38;1.02;;;;;;;-148.56;100.00;61375.16;4901782;28;20815;-31
2022/08/07 06:34:49;;;;;;;1.77;1.00;;;;;;;-148.56;100.00;61375.16;4903350;28;20041;-27
2022/08/07 06:37:14;;;;;;;1.98;1.00;;;;;;;-148.56;100.00;61375.16;4909951;28;20034;-26
2022/08/07 06:39:40;;;;;;;4.90;1.00;;;;;;;-148.56;100.00;61375.16;4902521;28;20643;-31
2022/08/07 06:42:23;;;;;;;3.10;1.10;;;;;;;-148.56;100.00;61375.16;4907012;28;20647;-24
2022/08/07 06:44:48;;;;;;;1.95;1.00;;;;;;;-148.56;100.00;61375.16;4908458;28;20039;-29
2022/08/07 06:47:14;;;;;;;4.45;1.35;;;;;;;-148.56;100.00;61375.16;4914611;28;20038;-28
2022/08/07 06:49:40;;;;;;;3.10;1.73;;;;;;;-148.56;100.00;61375.16;4908316;28;20042;-30
2022/08/07 06:52:06;;;;;;;3.20;2.05;;;;;;;-148.56;100.00;61375.16;4901368;28;20160;-25
2022/08/07 06:54:31;;;;;;;3.00;1.88;;;;;;;-148.56;100.00;61375.16;4886334;28;20060;-25
2022/08/07 06:56:57;;;;;;;3.58;2.00;;;;;;;-148.56;100.00;61375.16;4920885;28;20493;-26
2022/08/07 06:59:26;;;;;;;3.50;2.10;;;;;;;-148.56;100.00;61375.16;4901043;28;20815;-28
2022/08/07 07:01:51;;;;;;;3.00;1.92;;;;;;;-148.56;100.00;61375.16;4906506;28;20046;-31
2022/08/07 07:04:17;;;;;;;4.05;2.17;;;;;;;-148.56;100.00;61375.16;4887821;28;20134;-27
2022/08/07 07:06:43;;;;;;;2.85;1.80;;;;;;;-148.56;100.00;61375.16;4888178;28;20053;-28
2022/08/07 07:09:28;;;;;;;5.15;2.35;;;;;;;-148.56;100.00;61375.16;4912122;28;20035;-30
2022/08/07 07:12:03;;;;;;;3.55;2.00;;;;;;;-148.56;100.00;61375.16;4906642;28;20041;-26
2022/08/07 07:14:31;;;;;;;6.38;2.42;;;;;;;-148.56;100.00;61375.16;4917304;28;20118;-29
2022/08/07 07:16:59;;;;;;;36.60;3.03;;;;;;;-148.56;100.00;61375.16;4902629;28;20765;-26
2022/08/07 07:19:28;;;;;;;8.35;2.65;;;;;;;-148.56;100.00;61375.16;4907335;28;20138;-28
2022/08/07 07:21:54;;;;;;;5.75;2.40;;;;;;;-148.56;100.00;61375.16;4903115;28;20089;-30
2022/08/07 07:24:19;;;;;;;3.63;2.13;;;;;;;-148.56;100.00;61375.16;4901846;28;20070;-26
2022/08/07 07:26:45;;;;;;;2.67;1.92;;;;;;;-148.56;100.00;61375.16;4914968;28;20972;-30
2022/08/07 07:29:11;;;;;;;1.95;1.73;;;;;;;-148.56;100.00;61375.16;4898465;28;20077;-31
2022/08/07 07:31:41;;;;;;;4.20;2.10;;;;;;;-148.56;100.00;61375.16;4924176;28;20276;-25
2022/08/07 07:34:08;;;;;;;2.70;1.83;;;;;;;-148.56;100.00;61375.16;4922356;28;20062;-31
2022/08/07 07:36:33;;;;;;;2.90;1.90;;;;;;;-148.56;100.00;61375.16;4916228;28;20080;-29
2022/08/07 07:38:59;;;;;;;2.67;1.80;;;;;;;-148.56;100.00;61375.16;4906378;28;20919;-28
2022/08/07 07:41:24;;;;;;;3.70;1.77;;;;;;;-148.56;100.00;61375.16;4908139;28;21186;-29
2022/08/07 07:43:50;;;;;;;3.33;1.73;;;;;;;-148.56;100.00;61375.16;4919616;28;20174;-28
2022/08/07 07:46:17;;;;;;;4.38;1.50;;;;;;;-148.56;100.00;61375.16;4927406;28;20018;-29
2022/08/07 07:48:43;;;;;;;2.53;1.52;;;;;;;-148.56;100.00;61375.16;4923176;28;20019;-29
2022/08/07 07:51:09;;;;;;;3.70;1.63;;;;;;;-148.56;100.00;61375.16;4908276;28;20053;-28
2022/08/07 07:53:40;;;;;;;2.92;1.02;;;;;;;-148.56;100.00;61375.16;4922488;28;20034;-29
2022/08/07 07:56:06;;;;;;;3.22;1.40;;;;;;;-148.56;100.00;61375.16;4921987;28;20045;-32
2022/08/07 07:58:33;;;;;;;2.83;1.40;;;;;;;-148.56;100.00;61375.16;4904489;28;20475;-30
2022/08/07 08:00:58;;;;;;;4.93;1.20;;;;;;;-148.56;100.00;61375.16;4925862;28;20034;-28
2022/08/07 08:03:23;;;;;;;3.88;1.17;;;;;;;-148.56;100.00;61375.16;4904714;28;20045;-30
2022/08/07 08:05:49;;;;;;;2.08;1.00;;;;;;;-148.56;100.00;61375.16;4921356;28;20041;-27
2022/08/07 08:08:14;;;;;;;5.22;1.38;;;;;;;-148.56;100.00;61375.16;4922471;28;20034;-31
2022/08/07 08:10:40;;;;;;;2.30;1.20;;;;;;;-148.56;100.00;61375.16;4922261;28;20039;-30
2022/08/07 08:13:06;;;;;;;4.35;1.10;;;;;;;-148.56;100.00;61375.16;4929658;28;20574;-24
2022/08/07 08:15:34;;;;;;;1.23;0.98;;;;;;;-148.56;100.00;61375.16;4922990;28;20031;-32
2022/08/07 08:17:59;;;;;;;2.72;1.30;;;;;;;-148.56;100.00;61375.16;4927525;28;20034;-28
2022/08/07 08:20:26;;;;;;;4.97;1.15;;;;;;;-148.56;100.00;61375.16;4924827;28;20121;-32
2022/08/07 08:28:24;;;;;;;2.88;1.15;;;;;;;-148.56;100.00;61375.16;4922049;28;20384;-26
2022/08/07 08:30:53;;;;;;;3.58;0.80;;;;;;;-148.56;100.00;61375.16;4925966;28;20034;-27
2022/08/07 08:33:18;;;;;;;6.38;1.20;;;;;;;-148.56;100.00;61375.16;4922635;28;20090;-28
2022/08/07 08:35:48;;;;;;;5.35;1.08;;;;;;;-148.56;100.00;61375.16;4921323;28;20030;-30
2022/08/07 08:38:14;;;;;;;3.70;0.95;;;;;;;-148.56;100.00;61375.16;4902384;28;20027;-27
2022/08/07 08:40:40;;;;;;;2.35;1.00;;;;;;;-148.56;100.00;61375.16;4923749;28;21020;-28
2022/08/07 08:43:36;;;;;;;1.83;1.08;;;;;;;-148.56;100.00;61375.16;4916625;28;20034;-29
2022/08/07 08:46:24;;;;;;;2.67;0.93;;;;;;;-148.56;100.00;61375.16;4922579;28;20019;-27
2022/08/07 08:49:00;;;;;;;2.30;0.98;;;;;;;-148.56;100.00;61375.16;4922267;28;20608;-30
2022/08/07 08:51:36;;;;;;;2.63;1.02;;;;;;;-148.56;100.00;61375.16;4924745;28;20031;-34
2022/08/07 08:54:19;;;;;;;1.13;0.80;;;;;;;-148.56;100.00;61375.16;4921250;28;21036;-34
2022/08/07 08:56:46;;;;;;;1.92;1.20;;;;;;;-148.56;100.00;61375.16;4933359;28;20548;-30
2022/08/07 08:59:29;;;;;;;1.67;1.10;;;;;;;-148.56;100.00;61375.16;4945217;28;20030;-31
2022/08/07 09:02:30;;;;;;;4.72;1.08;;;;;;;-148.56;100.00;61375.16;4945114;28;20030;-33
2022/08/07 09:05:33;;;;;;;2.58;1.10;;;;;;;-148.56;100.00;61375.16;4941917;28;20038;-32
2022/08/07 09:08:29;;;;;;;2.58;1.00;;;;;;;-148.56;100.00;61375.16;4938558;28;20026;-29
2022/08/07 09:11:11;;;;;;;4.75;1.17;;;;;;;-148.56;100.00;61375.16;4942062;28;20033;-33
2022/08/07 09:13:55;;;;;;;2.40;1.15;;;;;;;-148.56;100.00;61375.16;4942244;28;20503;-28
2022/08/07 09:16:40;;;;;;;3.78;1.20;;;;;;;-148.56;100.00;61375.16;4959161;28;20033;-27
2022/08/07 09:19:14;;;;;;;6.63;1.33;;;;;;;-148.56;100.00;61375.16;4944346;28;20031;-31
2022/08/07 09:22:05;;;;;;;4.80;1.25;;;;;;;-148.56;100.00;61375.16;4941188;28;20105;-33
2022/08/07 09:24:42;;;;;;;4.85;1.20;;;;;;;-148.56;100.00;61375.16;4938540;28;20133;-34
2022/08/07 09:27:19;;;;;;;4.13;1.10;;;;;;;-148.56;100.00;61375.16;4934272;28;21383;-35
2022/08/07 09:29:47;;;;;;;4.63;1.20;;;;;;;-148.56;100.00;61375.16;4939082;28;20310;-27
2022/08/07 09:32:23;;;;;;;9.75;1.90;;;;;;;-148.56;100.00;61375.16;4943103;28;20089;-29
2022/08/07 09:35:21;;;;;;;9.55;2.67;;;;;;;-148.56;100.00;61375.16;4949453;28;20045;-32
2022/08/07 09:38:11;;;;;;;15.20;3.33;;;;;;;-148.56;100.00;61375.16;4944823;28;20068;-31
2022/08/07 09:40:41;;;;;;;12.88;4.47;;;;;;;-148.56;100.00;61375.16;4946148;28;20044;-31
2022/08/07 09:43:30;;;;;;;16.73;4.82;;;;;;;-148.56;100.00;61375.16;4947234;28;20127;-29
2022/08/07 09:46:35;;;;;;;12.82;4.30;;;;;;;-148.56;100.00;61375.16;4946708;28;20111;-27
2022/08/07 09:49:25;;;;;;;12.85;4.57;;;;;;;-148.56;100.00;61375.16;4947081;28;20034;-38
2022/08/07 09:52:04;;;;;;;10.50;3.97;;;;;;;-148.56;100.00;61375.16;4947869;28;20034;-33
2022/08/07 09:54:52;;;;;;;12.15;4.43;;;;;;;-148.56;100.00;61375.16;4948883;28;20691;-31
2022/08/07 09:57:55;;;;;;;10.57;4.07;;;;;;;-148.56;100.00;61375.16;4958653;28;20113;-31
2022/08/07 10:00:21;;;;;;;10.13;4.10;;;;;;;-148.56;100.00;61375.16;4949687;28;20147;-28
2022/08/07 10:03:23;;;;;;;11.68;3.78;;;;;;;-148.56;100.00;61375.16;4949985;28;20125;-32
2022/08/07 10:06:08;;;;;;;12.65;3.83;;;;;;;-148.56;100.00;61375.16;4945365;28;20035;-32
2022/08/07 10:09:22;;;;;;;8.75;3.78;;;;;;;-148.56;100.00;61375.16;4948547;28;21267;-30
2022/08/07 10:12:11;;;;;;;8.57;3.17;;;;;;;-148.56;100.00;61375.16;4948826;28;20042;-30
2022/08/07 10:14:46;;;;;;;12.30;3.30;;;;;;;-148.56;100.00;61375.16;4948032;28;20038;-34
2022/08/07 10:17:20;;;;;;;7.68;3.22;;;;;;;-148.56;100.00;61375.16;4945763;28;20645;-31
2022/08/07 10:19:54;;;;;;;11.50;3.40;;;;;;;-148.56;100.00;61375.16;4950003;28;21393;-30
2022/08/07 10:22:49;;;;;;;8.60;3.30;;;;;;;-148.56;100.00;61375.16;4965025;28;20116;-34
2022/08/07 10:25:45;;;;;;;7.28;3.00;;;;;;;-148.56;100.00;61375.16;4949297;28;20068;-30
2022/08/07 10:28:36;;;;;;;5.80;2.63;;;;;;;-148.56;100.00;61375.16;4948282;28;20042;-35
2022/08/07 10:31:20;;;;;;;7.90;3.33;;;;;;;-148.56;100.00;61375.16;4946026;28;21165;-31
2022/08/07 10:33:51;;;;;;;5.25;2.35;;;;;;;-148.56;100.00;61375.16;4942598;28;20617;-28
2022/08/07 10:36:45;;;;;;;4.72;2.45;;;;;;;-148.56;100.00;61375.16;4946109;28;20030;-30
2022/08/07 10:39:31;;;;;;;4.85;2.50;;;;;;;-148.56;100.00;61375.16;4949257;28;20112;-30
2022/08/07 10:42:05;;;;;;;4.32;2.17;;;;;;;-148.56;100.00;61375.16;4949521;28;20505;-30
2022/08/07 10:44:51;;;;;;;7.65;2.88;;;;;;;-148.56;100.00;61375.16;4930703;28;20035;-36
2022/08/07 10:47:41;;;;;;;5.95;2.67;;;;;;;-148.56;100.00;61375.16;4947904;28;21132;-28
2022/08/07 10:50:23;;;;;;;4.35;2.55;;;;;;;-148.56;100.00;61375.16;4947659;28;20042;-31
2022/08/07 10:52:58;;;;;;;;;;;;;;;-148.56;100.00;61375.16;4951260;28;20738;-29
2022/08/07 10:55:26;;;;;;;6.70;2.30;;;;;;;-148.56;100.00;61375.16;4947555;28;20567;-32
2022/08/07 10:58:03;;;;;;;5.20;2.33;;;;;;;-148.56;100.00;61375.16;4945398;28;20040;-29
2022/08/07 11:00:32;;;;;;;4.65;2.50;;;;;;;-148.56;100.00;61375.16;4945599;28;20026;-36
2022/08/07 11:03:04;;;;;;;4.38;2.30;;;;;;;-148.56;100.00;61375.16;4945133;28;21014;-32
2022/08/07 11:06:00;;;;;;;9.57;2.47;;;;;;;-148.56;100.00;61375.16;4945364;28;20037;-27
2022/08/07 11:08:53;;;;;;;4.18;2.10;;;;;;;-148.56;100.00;61375.16;4944422;28;20124;-29
2022/08/07 11:11:48;;;;;;;3.72;2.03;;;;;;;-148.56;100.00;61375.16;4953675;28;20282;-26
2022/08/07 11:14:23;;;;;;;4.50;2.20;;;;;;;-148.56;100.00;61375.16;4950782;28;20098;-33
2022/08/07 11:16:53;;;;;;;3.75;1.80;;;;;;;-148.56;100.00;61375.16;4948422;28;20534;-32
2022/08/07 11:19:34;;;;;;;4.97;2.00;;;;;;;-148.56;100.00;61375.16;4942242;28;20030;-28
2022/08/07 11:22:16;;;;;;;4.13;1.98;;;;;;;-148.56;100.00;61375.16;4954051;28;20039;-30
2022/08/07 11:24:51;;;;;;;4.30;1.85;;;;;;;-148.56;100.00;61375.16;4952238;28;20130;-32
2022/08/07 11:27:41;;;;;;;3.97;1.92;;;;;;;-148.56;100.00;61375.16;4952022;28;20042;-33
2022/08/07 11:30:10;;;;;;;5.47;1.70;;;;;;;-148.56;100.00;61375.16;4944765;28;20428;-36